Time;durP1;ratioP1;P1;durP2;ratioP2;P2;SDS_P1;SDS_P2;PMS_P1;PMS_P2;Temp;Humidity;BMP_temperature;BMP_pressure;BME280_temperature;BME280_humidity;BME280_pressure;Samples;Min_cycle;Max_cycle;Signal;HPM_P1;HPM_P2
2023/05/08 00:00:10;;;;;;;7.07;5.50;;;;;;;20.11;63.66;99000.88;6947455;28;20272;-85
2023/05/08 00:03:31;;;;;;;9.37;5.77;;;;;;;19.94;63.31;99000.13;6948312;28;20294;-85
2023/05/08 00:06:53;;;;;;;6.07;5.53;;;;;;;19.84;63.66;98991.81;6947763;28;20231;-85
2023/05/08 00:10:16;;;;;;;7.00;6.30;;;;;;;19.55;64.85;98998.63;6948055;28;20298;-85
2023/05/08 00:13:37;;;;;;;6.70;6.10;;;;;;;19.17;65.15;98939.41;6947732;28;20614;-85
2023/05/08 00:16:59;;;;;;;7.97;6.17;;;;;;;19.74;64.53;98998.03;6947947;28;20350;-84
2023/05/08 00:20:20;;;;;;;7.00;5.47;;;;;;;19.10;64.94;98957.13;6947983;28;20298;-85
2023/05/08 00:23:42;;;;;;;6.73;6.13;;;;;;;19.64;64.60;98983.44;6947451;28;20207;-85
2023/05/08 00:27:05;;;;;;;7.10;6.50;;;;;;;18.71;64.60;98868.97;6947241;28;20227;-85
2023/05/08 00:30:27;;;;;;;5.50;5.07;;;;;;;19.50;63.47;98949.34;6947630;28;20310;-85
2023/05/08 00:33:49;;;;;;;9.83;6.63;;;;;;;19.30;65.09;98995.63;6947552;28;20199;-85
2023/05/08 00:37:11;;;;;;;8.23;7.47;;;;;;;18.61;68.04;98999.91;6947661;28;20385;-85
2023/05/08 00:40:32;;;;;;;8.20;7.47;;;;;;;19.51;65.59;98998.34;6947800;28;20233;-85
2023/05/08 00:43:55;;;;;;;8.27;7.47;;;;;;;19.80;64.71;99004.38;6946857;28;20249;-85
2023/05/08 00:47:17;;;;;;;7.70;6.63;;;;;;;19.77;64.23;99003.00;6947443;28;20341;-85
2023/05/08 00:50:38;;;;;;;6.60;5.97;;;;;;;19.88;63.85;98996.50;6947075;28;20578;-85
2023/05/08 00:54:00;;;;;;;7.93;6.10;;;;;;;19.70;63.47;98996.88;6946756;28;20295;-85
2023/05/08 00:57:22;;;;;;;7.63;5.50;;;;;;;19.80;63.44;98998.91;6947589;28;21041;-85
2023/05/08 01:00:46;;;;;;;7.93;5.60;;;;;;;19.66;63.92;98997.66;6947304;28;20219;-85
2023/05/08 01:04:08;;;;;;;7.57;6.60;;;;;;;19.06;64.95;98992.34;6947163;28;20560;-86
2023/05/08 01:07:29;;;;;;;7.03;6.40;;;;;;;19.55;64.49;99004.13;6947223;28;20280;-86
2023/05/08 01:11:09;;;;;;;7.17;6.47;;;;;;;19.53;64.59;99009.88;6947232;28;20294;-85
2023/05/08 01:14:38;;;;;;;6.40;5.83;;;;;;;19.84;63.44;99003.59;6947409;28;20295;-85
2023/05/08 01:18:10;;;;;;;9.23;6.30;;;;;;;19.63;63.83;99003.66;6953151;28;20274;-85
2023/05/08 01:21:35;;;;;;;7.40;6.70;;;;;;;19.54;63.63;99010.66;6950499;28;20203;-85
2023/05/08 01:25:11;;;;;;;7.20;6.47;;;;;;;19.41;63.96;98994.69;6946645;28;20643;-85
2023/05/08 01:28:49;;;;;;;8.70;6.73;;;;;;;19.48;64.52;99014.44;6947134;28;20270;-85
2023/05/08 01:32:17;;;;;;;8.73;6.60;;;;;;;19.47;64.76;98996.38;6946227;28;20433;-85
2023/05/08 01:35:45;;;;;;;7.40;6.60;;;;;;;19.65;64.52;99016.00;6946830;28;20306;-85
2023/05/08 01:39:13;;;;;;;6.67;6.07;;;;;;;19.77;63.48;98991.22;6947048;28;20334;-85
2023/05/08 01:42:44;;;;;;;6.70;6.20;;;;;;;19.64;62.90;98972.50;6946351;28;20271;-85
2023/05/08 01:46:10;;;;;;;6.77;6.00;;;;;;;19.49;63.02;99003.25;6946762;28;20405;-85
2023/05/08 01:49:37;;;;;;;5.47;4.97;;;;;;;19.54;63.93;99021.63;6946575;28;20278;-85
2023/05/08 01:53:03;;;;;;;6.57;5.97;;;;;;;19.46;64.07;99022.09;6945941;28;20307;-86
2023/05/08 01:56:27;;;;;;;7.57;5.97;;;;;;;19.37;64.35;99023.59;6949656;28;20711;-85
2023/05/08 01:59:49;;;;;;;6.63;6.03;;;;;;;19.69;63.40;99022.59;6972711;28;20209;-85
2023/05/08 02:03:12;;;;;;;6.40;5.90;;;;;;;19.75;63.34;99037.16;6973928;28;20217;-85
2023/05/08 02:06:35;;;;;;;5.97;5.37;;;;;;;19.50;63.57;99001.31;6974813;28;20395;-86
2023/05/08 02:09:58;;;;;;;7.57;5.83;;;;;;;19.25;63.06;98947.22;6978809;28;20770;-85
2023/05/08 02:13:22;;;;;;;6.57;5.17;;;;;;;19.69;63.09;99003.44;6978416;28;20651;-86
2023/05/08 02:16:44;;;;;;;7.70;5.70;;;;;;;19.68;63.10;99031.06;6978532;28;20235;-85
2023/05/08 02:20:07;;;;;;;5.97;5.47;;;;;;;19.79;62.64;99036.38;6978203;28;20195;-85
2023/05/08 02:23:31;;;;;;;6.10;5.60;;;;;;;19.87;62.65;99029.63;6977925;28;20575;-86
2023/05/08 02:26:53;;;;;;;6.73;5.97;;;;;;;19.89;62.18;99044.72;6977119;28;20291;-85
2023/05/08 02:30:16;;;;;;;5.90;5.37;;;;;;;19.69;62.80;99040.94;6976869;28;20341;-85
2023/05/08 02:33:38;;;;;;;6.07;5.57;;;;;;;19.48;63.13;98989.81;6976812;28;20203;-85
2023/05/08 02:37:00;;;;;;;5.87;5.47;;;;;;;19.72;63.08;99040.41;6978169;28;20226;-85
2023/05/08 02:40:26;;;;;;;5.90;5.30;;;;;;;19.46;63.41;99008.41;6977364;28;20635;-85
2023/05/08 02:43:48;;;;;;;6.47;5.80;;;;;;;19.86;62.55;99038.94;6977672;28;20364;-85
2023/05/08 02:47:15;;;;;;;6.20;5.60;;;;;;;19.72;62.46;99018.53;6977581;28;20371;-85
2023/05/08 02:50:39;;;;;;;6.47;5.77;;;;;;;19.71;62.63;99042.34;6977584;28;20203;-85
2023/05/08 02:54:08;;;;;;;6.33;5.70;;;;;;;19.68;62.73;99042.00;6977398;28;20258;-85
2023/05/08 02:57:37;;;;;;;7.27;5.80;;;;;;;19.29;63.20;98986.59;6977432;28;20750;-85
2023/05/08 03:01:05;;;;;;;5.87;5.37;;;;;;;19.57;63.16;99035.59;6977006;28;20194;-85
2023/05/08 03:04:30;;;;;;;6.60;5.90;;;;;;;19.65;62.98;99035.16;6977146;28;20649;-85
2023/05/08 03:07:54;;;;;;;8.40;6.33;;;;;;;19.22;63.69;99026.97;6977640;28;20606;-85
2023/05/08 03:11:17;;;;;;;8.03;6.47;;;;;;;19.12;64.10;99004.16;6977245;28;20297;-85
2023/05/08 03:14:44;;;;;;;8.07;6.67;;;;;;;19.61;63.33;99033.16;6976576;28;20314;-85
2023/05/08 03:18:08;;;;;;;7.60;6.73;;;;;;;19.70;62.85;99015.22;6976652;28;20584;-85
2023/05/08 03:21:30;;;;;;;8.10;7.40;;;;;;;19.84;62.46;99027.41;6976282;28;20285;-85
2023/05/08 03:24:53;;;;;;;8.57;7.67;;;;;;;19.56;63.14;99016.69;6976109;28;20222;-85
2023/05/08 03:28:15;;;;;;;8.27;7.17;;;;;;;19.90;62.05;99029.09;6975880;28;20263;-85
2023/05/08 03:31:39;;;;;;;8.53;7.00;;;;;;;19.62;63.17;99032.91;6975658;28;20218;-85
2023/05/08 03:35:01;;;;;;;8.60;6.10;;;;;;;19.75;62.75;99040.72;6975243;28;20279;-85
2023/05/08 03:38:22;;;;;;;7.97;6.10;;;;;;;19.73;62.44;99033.84;6976747;28;20202;-85
2023/05/08 03:41:48;;;;;;;7.23;6.33;;;;;;;19.43;62.74;99022.56;6976737;28;20356;-85
2023/05/08 03:45:11;;;;;;;6.73;6.07;;;;;;;19.39;62.31;99018.72;6977790;28;20227;-85
2023/05/08 03:48:34;;;;;;;8.17;7.17;;;;;;;18.82;64.25;99029.16;6978678;28;20226;-85
2023/05/08 03:51:56;;;;;;;8.47;6.10;;;;;;;19.13;64.14;99036.69;6977083;28;20300;-85
2023/05/08 03:55:18;;;;;;;8.40;6.60;;;;;;;19.20;63.50;99026.38;6977865;28;20230;-85
2023/05/08 03:58:45;;;;;;;6.97;6.30;;;;;;;19.41;62.98;99046.63;6978838;28;20341;-85
2023/05/08 04:02:14;;;;;;;12.23;7.30;;;;;;;19.21;63.38;99035.47;6977999;28;20214;-85
2023/05/08 04:05:38;;;;;;;8.17;7.37;;;;;;;19.00;63.93;99034.34;6977753;28;20229;-85
2023/05/08 04:09:07;;;;;;;9.23;7.40;;;;;;;18.32;64.82;98964.78;6977911;28;20592;-85
2023/05/08 04:12:37;;;;;;;13.77;8.63;;;;;;;18.86;65.29;99040.44;6977747;28;20289;-85
2023/05/08 04:16:06;;;;;;;11.93;9.67;;;;;;;19.11;64.64;99044.31;6977218;28;20225;-84
2023/05/08 04:19:30;;;;;;;12.33;9.63;;;;;;;19.30;64.29;99051.16;6977819;28;20278;-85
2023/05/08 04:22:54;;;;;;;10.30;8.03;;;;;;;19.40;62.72;99018.44;6976676;28;20680;-84
2023/05/08 04:26:16;;;;;;;8.50;7.53;;;;;;;19.61;63.06;99060.53;6977431;28;20360;-84
2023/05/08 04:29:38;;;;;;;10.17;9.23;;;;;;;19.47;63.14;99060.13;6972132;28;20679;-84
2023/05/08 04:33:02;;;;;;;10.03;8.20;;;;;;;19.42;63.78;99064.69;6962593;28;20352;-86
2023/05/08 04:36:24;;;;;;;8.33;7.40;;;;;;;19.16;63.92;99068.16;6965804;28;20481;-84
2023/05/08 04:39:50;;;;;;;9.50;8.23;;;;;;;18.96;64.21;99055.06;6977704;28;20212;-84
2023/05/08 04:43:12;;;;;;;9.17;8.27;;;;;;;19.30;63.83;99066.72;6956707;28;20286;-84
2023/05/08 04:46:33;;;;;;;9.37;8.50;;;;;;;19.59;63.48;99079.97;6960862;28;20307;-84
2023/05/08 04:49:55;;;;;;;14.10;12.80;;;;;;;19.29;63.99;99062.34;6954627;28;20365;-85
2023/05/08 04:53:16;;;;;;;10.03;9.07;;;;;;;19.37;64.28;99090.06;6958388;28;20203;-85
2023/05/08 04:56:39;;;;;;;8.63;7.80;;;;;;;19.73;63.12;99069.41;6948045;28;20346;-84
2023/05/08 05:00:01;;;;;;;7.50;6.80;;;;;;;19.47;62.21;99002.69;6950447;28;20551;-85
2023/05/08 05:03:22;;;;;;;7.70;6.60;;;;;;;19.63;62.14;99034.56;6947749;28;20698;-85
2023/05/08 05:06:53;;;;;;;6.87;6.20;;;;;;;19.80;62.50;99083.75;6976827;28;20281;-85
2023/05/08 05:10:14;;;;;;;8.50;6.83;;;;;;;19.85;61.76;99076.41;6976432;28;20241;-85
2023/05/08 05:13:37;;;;;;;8.60;6.33;;;;;;;19.74;62.17;99046.47;6971562;28;20298;-85
2023/05/08 05:17:07;;;;;;;6.50;6.00;;;;;;;19.91;62.18;99096.44;6998508;28;20280;-85
2023/05/08 05:20:28;;;;;;;7.30;6.60;;;;;;;19.80;62.52;99075.53;6959537;28;20295;-85
2023/05/08 05:23:50;;;;;;;7.67;6.97;;;;;;;19.55;63.18;99086.16;6950844;28;20206;-88
2023/05/08 05:27:11;;;;;;;8.07;7.37;;;;;;;19.85;63.23;99105.66;6976432;28;20293;-84
2023/05/08 05:30:35;;;;;;;8.10;7.40;;;;;;;19.71;62.90;99045.06;6975422;28;20704;-86
2023/05/08 05:33:57;;;;;;;7.90;7.07;;;;;;;19.94;62.36;99093.19;6973150;28;20248;-87
2023/05/08 05:37:19;;;;;;;7.70;7.07;;;;;;;20.14;62.45;99107.09;6967521;28;20229;-87
2023/05/08 05:40:40;;;;;;;9.37;7.03;;;;;;;19.36;61.89;98953.59;6975931;28;20206;-88
2023/05/08 05:44:02;;;;;;;10.37;7.87;;;;;;;19.70;62.47;99009.75;6981679;28;20692;-88
2023/05/08 05:47:25;;;;;;;8.00;7.30;;;;;;;20.11;62.95;99113.09;6981676;28;20271;-88
2023/05/08 05:50:46;;;;;;;8.53;7.67;;;;;;;19.92;62.52;99060.59;6982024;28;20194;-88
2023/05/08 05:54:08;;;;;;;8.63;7.83;;;;;;;20.23;62.23;99109.09;6981187;28;20222;-88
2023/05/08 05:57:29;;;;;;;9.83;8.57;;;;;;;20.13;62.75;99099.97;6981461;28;20290;-87
2023/05/08 06:00:51;;;;;;;8.63;7.73;;;;;;;20.33;62.77;99111.94;6981747;28;20265;-87
2023/05/08 06:04:14;;;;;;;8.50;7.70;;;;;;;20.45;61.79;99104.38;6980909;28;20213;-89
2023/05/08 06:07:35;;;;;;;8.07;7.30;;;;;;;19.93;61.54;99001.22;6976098;28;20219;-89
2023/05/08 06:10:57;;;;;;;9.00;8.10;;;;;;;20.33;62.24;99101.00;6982063;28;20217;-88
2023/05/08 06:14:19;;;;;;;8.27;7.47;;;;;;;20.39;62.59;99101.88;6980892;28;20331;-89
2023/05/08 06:17:59;;;;;;;9.20;8.30;;;;;;;20.25;63.01;99097.91;6980626;28;20210;-88
2023/05/08 06:21:22;;;;;;;8.77;8.03;;;;;;;20.49;62.43;99107.41;6981591;28;20663;-88
2023/05/08 06:24:44;;;;;;;10.53;9.20;;;;;;;20.61;61.83;99110.81;6968074;28;20261;-88
2023/05/08 06:28:06;;;;;;;9.23;8.10;;;;;;;19.92;62.07;99025.00;6953709;28;20280;-88
2023/05/08 06:31:28;;;;;;;7.73;7.00;;;;;;;20.50;61.66;99073.44;6953501;28;20239;-88
2023/05/08 06:34:50;;;;;;;7.93;7.13;;;;;;;20.60;61.94;99084.50;6953155;28;20322;-88
2023/05/08 06:38:13;;;;;;;6.83;5.87;;;;;;;20.43;61.09;99073.69;6953532;28;20243;-88
2023/05/08 06:41:34;;;;;;;7.00;6.40;;;;;;;20.72;61.18;99102.41;6953423;28;20210;-88
2023/05/08 06:44:56;;;;;;;6.83;6.23;;;;;;;20.87;61.08;99115.41;6952532;28;20230;-87
2023/05/08 06:48:17;;;;;;;9.10;5.67;;;;;;;21.07;60.46;99113.66;6953047;28;20595;-88
2023/05/08 06:51:39;;;;;;;6.27;5.60;;;;;;;21.18;60.40;99132.63;6953532;28;20266;-88
2023/05/08 06:55:02;;;;;;;8.40;5.80;;;;;;;21.21;60.13;99128.53;6953180;28;20234;-89
2023/05/08 06:58:23;;;;;;;6.33;5.73;;;;;;;20.89;60.60;99053.78;6953694;28;20203;-88
2023/05/08 07:01:45;;;;;;;6.30;5.70;;;;;;;21.46;59.43;99124.00;6952454;28;20208;-89
2023/05/08 07:05:07;;;;;;;6.17;5.63;;;;;;;21.31;59.26;99096.50;6952833;28;20373;-88
2023/05/08 07:08:29;;;;;;;6.80;6.07;;;;;;;21.53;58.25;99118.28;6952743;28;20267;-88
2023/05/08 07:11:51;;;;;;;6.27;5.20;;;;;;;21.52;59.27;99122.94;6952383;28;20285;-88
2023/05/08 07:15:13;;;;;;;6.03;5.53;;;;;;;20.91;58.62;98999.50;6955841;28;20221;-88
2023/05/08 07:18:43;;;;;;;7.10;6.50;;;;;;;21.52;58.97;99122.94;6951908;28;20306;-88
2023/05/08 07:22:05;;;;;;;8.57;7.87;;;;;;;21.27;59.74;99078.09;6952500;28;20344;-88
2023/05/08 07:25:27;;;;;;;7.20;6.20;;;;;;;21.14;58.88;99001.81;6952445;28;20219;-88
2023/05/08 07:28:52;;;;;;;8.57;7.77;;;;;;;21.46;58.48;99112.19;6954983;28;20607;-88
2023/05/08 07:32:14;;;;;;;8.30;7.50;;;;;;;21.61;58.97;99115.03;6951628;28;20207;-87
2023/05/08 07:35:38;;;;;;;9.47;8.50;;;;;;;21.97;58.02;99142.38;6953139;28;20236;-87
2023/05/08 07:38:59;;;;;;;10.30;9.40;;;;;;;21.83;57.35;99132.16;6953659;28;20660;-88
2023/05/08 07:42:21;;;;;;;11.47;9.60;;;;;;;21.85;57.39;99136.28;6951334;28;20301;-88
2023/05/08 07:45:44;;;;;;;11.50;10.40;;;;;;;21.51;58.03;99084.78;6951934;28;20226;-88
2023/05/08 07:49:06;;;;;;;11.03;10.03;;;;;;;21.90;57.98;99136.28;6967242;28;20297;-88
2023/05/08 07:52:27;;;;;;;12.43;11.03;;;;;;;21.16;58.96;99128.50;6978687;28;20216;-88
2023/05/08 07:55:49;;;;;;;12.90;11.60;;;;;;;20.55;60.07;99142.00;6978702;28;20288;-88
2023/05/08 07:59:10;;;;;;;10.90;9.77;;;;;;;21.29;59.58;99119.78;6978883;28;20341;-88
2023/05/08 08:02:33;;;;;;;10.63;9.53;;;;;;;21.76;58.31;99106.88;6977712;28;20734;-88
2023/05/08 08:05:55;;;;;;;11.83;9.73;;;;;;;22.15;58.00;99146.53;6958564;28;20243;-88
2023/05/08 08:09:16;;;;;;;15.63;10.10;;;;;;;22.21;57.65;99139.94;6950828;28;20228;-88
2023/05/08 08:12:38;;;;;;;11.67;10.60;;;;;;;22.12;57.99;99142.41;6950098;28;20250;-88
2023/05/08 08:15:59;;;;;;;11.93;10.83;;;;;;;21.94;58.08;99145.66;6950829;28;20251;-89
2023/05/08 08:19:26;;;;;;;11.50;10.30;;;;;;;22.37;56.42;99147.13;6949823;28;20243;-88
2023/05/08 08:22:48;;;;;;;11.87;10.67;;;;;;;22.33;56.71;99148.75;6950021;28;20233;-88
2023/05/08 08:26:10;;;;;;;14.17;11.17;;;;;;;22.57;56.79;99141.66;6950652;28;20255;-88
2023/05/08 08:29:31;;;;;;;11.87;10.77;;;;;;;22.02;57.36;99105.84;6961442;28;20224;-86
2023/05/08 08:32:53;;;;;;;10.97;9.97;;;;;;;22.63;55.01;99157.91;6952710;28;20288;-88
2023/05/08 08:36:16;;;;;;;11.60;10.30;;;;;;;22.34;56.07;99140.25;6969896;28;20254;-88
2023/05/08 08:39:37;;;;;;;12.57;11.37;;;;;;;22.41;56.96;99150.94;6976935;28;20203;-87
2023/05/08 08:42:59;;;;;;;11.87;10.67;;;;;;;21.72;56.34;99067.34;6988875;28;20210;-87
2023/05/08 08:46:24;;;;;;;12.63;11.10;;;;;;;21.90;56.63;99081.38;6982709;28;20233;-87
2023/05/08 08:49:48;;;;;;;15.53;11.17;;;;;;;22.21;56.71;99151.78;6988086;28;20246;-87
2023/05/08 08:53:16;;;;;;;12.47;11.17;;;;;;;22.34;56.78;99151.25;6990170;28;20218;-88
2023/05/08 08:56:41;;;;;;;12.77;11.47;;;;;;;22.49;57.03;99147.72;6984028;28;20226;-87
2023/05/08 09:00:05;;;;;;;12.47;11.37;;;;;;;22.06;56.42;99077.56;6949376;28;20251;-87
2023/05/08 09:03:26;;;;;;;11.50;10.33;;;;;;;22.92;54.62;99152.66;6949070;28;20212;-86
2023/05/08 09:06:49;;;;;;;12.00;10.90;;;;;;;22.62;56.11;99160.91;6949426;28;20222;-87
2023/05/08 09:10:14;;;;;;;12.80;11.47;;;;;;;22.70;55.18;99163.94;6949496;28;20291;-87
2023/05/08 09:13:36;;;;;;;13.37;10.77;;;;;;;22.45;55.25;99150.19;6949081;28;20215;-87
2023/05/08 09:16:58;;;;;;;11.37;10.27;;;;;;;22.34;54.87;99151.25;6952560;28;20257;-87
2023/05/08 09:20:20;;;;;;;12.27;11.17;;;;;;;22.52;56.12;99161.75;6955268;28;20290;-88
2023/05/08 09:23:55;;;;;;;11.80;10.67;;;;;;;22.46;54.71;99157.34;6954857;28;20245;-87
2023/05/08 09:27:21;;;;;;;11.23;10.13;;;;;;;22.19;54.47;99089.97;6955400;28;20233;-87
2023/05/08 09:30:49;;;;;;;11.70;10.60;;;;;;;22.66;54.94;99138.09;6954866;28;20229;-87
2023/05/08 09:34:13;;;;;;;14.20;12.03;;;;;;;22.53;55.29;99144.16;6956193;28;20199;-86
2023/05/08 09:37:38;;;;;;;14.03;12.50;;;;;;;21.35;59.10;99159.88;6988845;28;20235;-87
2023/05/08 09:41:06;;;;;;;13.40;12.10;;;;;;;21.28;57.67;99075.09;6981227;28;20251;-84
2023/05/08 09:44:43;;;;;;;18.90;12.87;;;;;;;21.86;56.79;99157.16;6978931;28;20195;-89
2023/05/08 09:48:05;;;;;;;13.03;11.67;;;;;;;22.50;56.36;99157.59;6980013;28;20310;-87
2023/05/08 09:51:29;;;;;;;13.60;12.30;;;;;;;22.62;55.70;99166.41;6980517;28;20210;-84
2023/05/08 09:54:57;;;;;;;16.97;11.57;;;;;;;22.63;55.43;99177.16;6977800;28;20365;-83
2023/05/08 09:58:19;;;;;;;13.50;12.10;;;;;;;22.63;55.77;99135.06;6972365;28;20199;-85
2023/05/08 10:01:42;;;;;;;13.07;11.80;;;;;;;22.92;53.16;99112.25;6970604;28;20298;-87
2023/05/08 10:05:05;;;;;;;13.30;12.10;;;;;;;22.52;54.02;99156.25;6980781;28;20227;-86
2023/05/08 10:08:28;;;;;;;13.03;11.80;;;;;;;22.24;54.00;99057.00;6981044;28;20760;-86
2023/05/08 10:11:51;;;;;;;13.60;12.30;;;;;;;22.35;56.20;99163.88;6979945;28;20206;-84
2023/05/08 10:15:13;;;;;;;12.77;11.47;;;;;;;22.84;55.00;99158.72;6980040;28;20229;-83
2023/05/08 10:18:39;;;;;;;13.13;11.83;;;;;;;22.59;54.76;99137.56;6979359;28;20285;-83
2023/05/08 10:22:02;;;;;;;13.70;12.07;;;;;;;23.00;54.06;99166.69;6967238;28;20217;-84
2023/05/08 10:25:24;;;;;;;13.37;11.90;;;;;;;22.68;53.14;99146.06;6952132;28;20378;-83
2023/05/08 10:28:50;;;;;;;13.07;11.87;;;;;;;21.92;56.34;99152.50;6978671;28;20336;-83
2023/05/08 10:32:13;;;;;;;14.17;12.77;;;;;;;21.88;55.37;99163.19;6978530;28;20213;-83
2023/05/08 10:35:37;;;;;;;13.40;12.20;;;;;;;22.83;53.77;99148.84;6979407;28;20592;-84
2023/05/08 10:38:59;;;;;;;14.43;13.03;;;;;;;21.81;55.75;99148.91;6978978;28;20291;-83
2023/05/08 10:42:20;;;;;;;13.07;11.47;;;;;;;22.85;53.81;99111.72;6978479;28;20293;-83
2023/05/08 10:45:42;;;;;;;14.67;10.97;;;;;;;23.55;50.78;99139.06;6979269;28;20253;-82
2023/05/08 10:49:13;;;;;;;12.43;11.23;;;;;;;23.48;50.78;99155.06;6977933;28;21017;-83
2023/05/08 10:52:42;;;;;;;12.33;11.10;;;;;;;22.50;52.69;99139.22;6977743;28;20600;-83
2023/05/08 10:56:04;;;;;;;12.00;10.83;;;;;;;22.96;51.61;99146.31;6964768;28;20240;-82
2023/05/08 10:59:25;;;;;;;12.07;10.90;;;;;;;22.77;53.15;99160.94;6977709;28;20268;-82
2023/05/08 11:02:48;;;;;;;10.47;9.47;;;;;;;22.99;49.94;99129.28;6964532;28;20294;-81
2023/05/08 11:06:10;;;;;;;10.73;9.63;;;;;;;22.69;51.81;99143.06;6975341;28;20310;-82
2023/05/08 11:09:47;;;;;;;11.27;10.13;;;;;;;22.64;51.10;99137.56;6969179;28;20324;-81
2023/05/08 11:13:09;;;;;;;9.27;8.33;;;;;;;21.87;52.27;99155.22;6948488;28;20189;-81
2023/05/08 11:17:06;;;;;;;9.97;8.97;;;;;;;21.73;52.22;99146.66;6961359;28;20222;-81
2023/05/08 11:20:38;;;;;;;10.60;9.53;;;;;;;22.62;52.40;99138.94;6968891;28;20297;-81
2023/05/08 11:24:10;;;;;;;11.73;10.37;;;;;;;23.16;49.58;99146.34;6952858;28;20682;-81
2023/05/08 11:28:13;;;;;;;11.03;10.03;;;;;;;23.86;49.48;99137.88;6988959;28;20700;-81
2023/05/08 11:31:51;;;;;;;9.10;8.30;;;;;;;23.85;48.83;99135.38;7004918;28;20242;-80
2023/05/08 11:35:13;;;;;;;9.33;8.53;;;;;;;23.31;50.12;99140.00;6978168;28;20311;-80
2023/05/08 11:38:37;;;;;;;9.90;9.00;;;;;;;23.22;50.98;99128.72;6977511;28;20269;-80
2023/05/08 11:42:31;;;;;;;11.03;10.03;;;;;;;23.16;50.17;99137.22;6978357;28;20215;-81
2023/05/08 11:45:54;;;;;;;10.50;9.50;;;;;;;22.50;51.97;99136.47;6978393;28;20263;-81
2023/05/08 11:49:18;;;;;;;9.80;8.30;;;;;;;23.34;51.62;99140.25;6970150;28;20814;-81
2023/05/08 11:52:41;;;;;;;10.53;9.63;;;;;;;22.98;52.51;99102.88;6950423;28;20684;-81
2023/05/08 11:56:04;;;;;;;10.40;9.43;;;;;;;22.57;53.62;99131.50;6950525;28;20254;-81
2023/05/08 11:59:25;;;;;;;10.67;9.60;;;;;;;23.59;52.70;99100.81;6951403;28;20244;-80
2023/05/08 12:02:47;;;;;;;11.10;10.00;;;;;;;23.71;50.74;99121.41;6949374;28;20258;-80
2023/05/08 12:06:10;;;;;;;9.27;8.47;;;;;;;23.49;50.56;99128.38;6955192;28;20765;-80
2023/05/08 12:09:31;;;;;;;9.67;8.70;;;;;;;23.54;50.20;99115.41;6949538;28;20253;-80
2023/05/08 12:12:53;;;;;;;9.93;8.73;;;;;;;23.90;50.68;99122.44;6949962;28;20290;-81
2023/05/08 12:16:16;;;;;;;11.77;10.67;;;;;;;23.92;51.35;99117.47;6950135;28;20228;-81
2023/05/08 12:19:37;;;;;;;9.97;9.07;;;;;;;23.93;51.20;99130.16;6948864;28;20768;-80
2023/05/08 12:23:02;;;;;;;11.77;10.57;;;;;;;22.99;51.13;99098.19;6965746;28;20330;-80
2023/05/08 12:26:24;;;;;;;11.67;10.47;;;;;;;22.99;53.34;99143.03;6985585;28;20357;-80
2023/05/08 12:29:45;;;;;;;12.07;10.77;;;;;;;23.01;55.07;99138.06;6960221;28;20658;-80
2023/05/08 12:33:07;;;;;;;12.63;11.40;;;;;;;22.38;54.54;99083.66;6946890;28;20202;-80
2023/05/08 12:36:29;;;;;;;12.77;11.47;;;;;;;23.13;55.93;99129.53;6947786;28;20313;-80
2023/05/08 12:39:51;;;;;;;12.43;11.23;;;;;;;23.29;52.97;99132.00;6946944;28;20350;-80
2023/05/08 12:43:13;;;;;;;14.23;12.87;;;;;;;21.90;56.32;99130.00;6947620;28;20217;-81
2023/05/08 12:46:35;;;;;;;13.83;12.47;;;;;;;21.86;55.89;99118.72;6955800;28;20227;-80
2023/05/08 12:49:57;;;;;;;13.40;12.10;;;;;;;23.00;54.33;99116.34;6974520;28;20276;-86
2023/05/08 12:53:21;;;;;;;13.87;12.20;;;;;;;22.29;54.99;99132.00;6976464;28;20277;-89
2023/05/08 12:56:44;;;;;;;12.87;11.67;;;;;;;22.99;55.29;99117.44;6976472;28;20296;-85
2023/05/08 13:00:06;;;;;;;12.97;11.30;;;;;;;23.58;50.75;99112.91;6970162;28;20212;-82
2023/05/08 13:03:29;;;;;;;11.23;10.17;;;;;;;24.11;50.48;99118.47;6974421;28;20258;-81
2023/05/08 13:06:54;;;;;;;11.03;10.03;;;;;;;24.52;50.22;99116.25;6951750;28;20727;-81
2023/05/08 13:10:17;;;;;;;11.10;10.00;;;;;;;23.82;50.05;99114.75;6952381;28;20233;-82
2023/05/08 13:13:40;;;;;;;10.90;9.73;;;;;;;24.03;50.01;99093.44;6960099;28;20207;-82
2023/05/08 13:17:01;;;;;;;11.70;10.60;;;;;;;24.71;48.08;99111.72;6950445;28;20320;-82
2023/05/08 13:20:23;;;;;;;11.47;10.37;;;;;;;23.19;51.47;99089.94;6947513;28;20336;-82
2023/05/08 13:23:45;;;;;;;11.03;9.93;;;;;;;24.42;48.92;99110.84;6958891;28;20288;-82
2023/05/08 13:27:06;;;;;;;11.00;9.90;;;;;;;24.02;49.13;99106.38;6955879;28;20227;-82
2023/05/08 13:30:29;;;;;;;10.27;9.27;;;;;;;25.00;48.09;99102.34;6950446;28;20704;-82
2023/05/08 13:33:50;;;;;;;11.77;9.17;;;;;;;25.11;47.13;99105.81;6952282;28;20220;-82
2023/05/08 13:37:12;;;;;;;9.80;8.80;;;;;;;25.52;45.67;99076.66;6958172;28;20367;-82
2023/05/08 13:40:33;;;;;;;9.57;8.70;;;;;;;25.09;46.86;99080.47;6948557;28;20298;-84
2023/05/08 13:43:55;;;;;;;9.80;8.90;;;;;;;24.95;45.65;99054.69;6960945;28;20303;-82
2023/05/08 13:47:18;;;;;;;11.03;9.93;;;;;;;23.47;49.12;99101.13;6951794;28;20257;-81
2023/05/08 13:50:39;;;;;;;12.07;10.80;;;;;;;22.31;51.10;99061.09;6965884;28;20225;-81
2023/05/08 13:54:01;;;;;;;11.37;10.27;;;;;;;23.06;50.91;99085.00;6957742;28;20289;-81
2023/05/08 13:57:23;;;;;;;9.70;8.70;;;;;;;22.89;53.06;99071.53;6946647;28;20235;-81
2023/05/08 14:00:44;;;;;;;10.53;9.53;;;;;;;22.64;51.52;99073.50;6957157;28;20208;-80
2023/05/08 14:04:07;;;;;;;10.17;9.27;;;;;;;22.88;51.47;99080.06;6973732;28;20272;-80
2023/05/08 14:07:29;;;;;;;10.40;9.40;;;;;;;23.36;49.94;99055.47;6953481;28;20236;-81
2023/05/08 14:10:51;;;;;;;9.10;8.20;;;;;;;24.34;47.51;99072.84;6963198;28;20247;-81
2023/05/08 14:14:13;;;;;;;9.27;8.37;;;;;;;24.15;48.03;99080.97;6973911;28;20224;-81
2023/05/08 14:17:34;;;;;;;11.20;9.13;;;;;;;24.47;45.46;99073.00;6975768;28;20232;-86
2023/05/08 14:20:57;;;;;;;9.33;8.43;;;;;;;24.60;46.73;99064.09;6954926;28;20294;-81
2023/05/08 14:24:18;;;;;;;9.07;8.17;;;;;;;24.70;45.80;99075.06;6967573;28;20655;-83
2023/05/08 14:27:40;;;;;;;9.07;8.17;;;;;;;24.41;47.51;99076.91;6980193;28;20308;-81
2023/05/08 14:31:01;;;;;;;11.13;9.30;;;;;;;22.96;49.83;99093.28;6952299;28;20703;-82
2023/05/08 14:34:23;;;;;;;12.03;9.17;;;;;;;22.63;49.87;99050.69;6960517;28;20272;-84
2023/05/08 14:37:46;;;;;;;8.57;7.77;;;;;;;23.09;50.17;99043.16;6975152;28;20225;-83
2023/05/08 14:41:07;;;;;;;11.27;8.97;;;;;;;23.62;48.36;99064.44;6980899;28;20232;-82
2023/05/08 14:44:29;;;;;;;10.40;9.40;;;;;;;23.09;49.78;99056.94;6961353;28;20643;-82
2023/05/08 14:47:51;;;;;;;10.20;9.30;;;;;;;23.02;50.18;99072.91;6952888;28;20237;-81
2023/05/08 14:51:12;;;;;;;10.33;9.40;;;;;;;23.05;49.79;99064.91;6955203;28;20361;-82
2023/05/08 14:54:35;;;;;;;10.50;9.40;;;;;;;23.43;48.68;99053.25;6978777;28;20680;-82
2023/05/08 14:57:57;;;;;;;10.27;9.23;;;;;;;23.63;48.58;99074.34;6977489;28;20301;-83
2023/05/08 15:01:19;;;;;;;10.83;9.50;;;;;;;23.98;47.66;99054.91;6981264;28;20289;-83
2023/05/08 15:04:41;;;;;;;10.53;9.37;;;;;;;23.79;48.32;99073.97;6980248;28;20208;-84
2023/05/08 15:08:03;;;;;;;11.47;8.70;;;;;;;24.22;47.14;99064.94;6980986;28;20216;-83
2023/05/08 15:11:26;;;;;;;10.47;9.43;;;;;;;24.06;47.04;99052.38;6981322;28;20227;-83
2023/05/08 15:14:48;;;;;;;11.77;9.40;;;;;;;23.85;47.10;99004.03;6975205;28;20307;-88
2023/05/08 15:18:09;;;;;;;8.80;7.90;;;;;;;24.36;47.09;99079.72;6990803;28;20204;-82
2023/05/08 15:21:31;;;;;;;9.83;8.60;;;;;;;23.84;47.87;99070.41;6989061;28;20277;-82
2023/05/08 15:24:52;;;;;;;10.23;9.27;;;;;;;23.27;49.89;99075.59;6987236;28;20262;-83
2023/05/08 15:28:15;;;;;;;9.93;9.00;;;;;;;23.43;50.44;99061.50;6961619;28;20358;-84
2023/05/08 15:31:37;;;;;;;10.70;9.70;;;;;;;23.29;51.22;99056.88;6960629;28;20292;-82
2023/05/08 15:34:58;;;;;;;10.83;9.80;;;;;;;22.56;52.17;99030.09;6977992;28;20277;-82
2023/05/08 15:38:20;;;;;;;10.97;9.77;;;;;;;22.70;51.01;99080.63;6966749;28;20707;-83
2023/05/08 15:41:43;;;;;;;10.57;9.47;;;;;;;22.46;52.60;99074.06;6961576;28;20349;-82
2023/05/08 15:45:07;;;;;;;9.63;8.70;;;;;;;22.96;51.42;99066.56;6949163;28;20324;-82
2023/05/08 15:48:29;;;;;;;9.90;9.03;;;;;;;23.18;50.77;99075.34;6962813;28;20206;-83